Time;durP1;ratioP1;P1;durP2;ratioP2;P2;SDS_P1;SDS_P2;PMS_P1;PMS_P2;Temp;Humidity;BMP_temperature;BMP_pressure;BME280_temperature;BME280_humidity;BME280_pressure;Samples;Min_cycle;Max_cycle;Signal;HPM_P1;HPM_P2
2022/03/15 00:01:20;;;;;;;3.92;1.73;;;;;;;10.71;45.43;102731.16;2086995;28;20052;-76
2022/03/15 00:02:43;;;;;;;5.50;2.45;;;;;;;10.72;45.61;102722.41;2091970;28;20607;-76
2022/03/15 00:04:07;;;;;;;4.07;1.95;;;;;;;10.74;45.67;102728.69;2094823;28;20044;-76
2022/03/15 00:05:28;;;;;;;4.93;2.50;;;;;;;10.73;45.55;102726.88;2095501;28;20132;-77
2022/03/15 00:06:55;;;;;;;6.10;2.00;;;;;;;10.72;45.66;102727.69;2089319;28;20055;-76
2022/03/15 00:08:19;;;;;;;2.65;1.38;;;;;;;10.70;45.58;102726.72;2087249;28;20045;-77
2022/03/15 00:09:42;;;;;;;3.55;1.23;;;;;;;10.69;45.55;102720.56;2081036;28;20098;-77
2022/03/15 00:11:06;;;;;;;4.20;2.08;;;;;;;10.70;45.67;102713.50;2084939;28;20052;-76
2022/03/15 00:12:29;;;;;;;4.35;1.48;;;;;;;10.70;45.59;102721.44;2087215;28;20037;-76
2022/03/15 00:13:53;;;;;;;4.95;1.40;;;;;;;10.70;45.43;102724.97;2083921;28;20048;-77
2022/03/15 00:15:16;;;;;;;6.60;1.58;;;;;;;10.71;45.53;102717.97;2083004;28;20045;-77
2022/03/15 00:16:39;;;;;;;2.50;1.20;;;;;;;10.70;45.33;102722.34;2084179;28;20041;-76
2022/03/15 00:18:01;;;;;;;2.60;1.10;;;;;;;10.72;45.29;102727.69;2083022;28;20033;-76
2022/03/15 00:19:24;;;;;;;3.20;1.15;;;;;;;10.70;45.20;102727.63;2084188;28;20049;-77
2022/03/15 00:20:46;;;;;;;2.60;1.55;;;;;;;10.70;45.12;102724.97;2083469;28;20132;-76
2022/03/15 00:22:09;;;;;;;5.40;1.02;;;;;;;10.69;45.30;102723.19;2086787;28;20579;-75
2022/03/15 00:23:35;;;;;;;1.42;0.70;;;;;;;10.69;45.20;102735.50;2078911;28;20049;-75
2022/03/15 00:24:56;;;;;;;4.88;1.27;;;;;;;10.67;45.04;102716.03;2087459;28;20045;-77
2022/03/15 00:26:20;;;;;;;6.32;1.55;;;;;;;10.68;45.23;102725.75;2086549;28;20492;-77
2022/03/15 00:27:42;;;;;;;5.90;2.00;;;;;;;10.65;45.52;102712.41;2080916;28;20045;-77
2022/03/15 00:29:04;;;;;;;4.43;1.50;;;;;;;10.62;45.53;102722.84;2082371;28;20103;-77
2022/03/15 00:30:27;;;;;;;4.93;2.05;;;;;;;10.61;45.65;102721.94;2089151;28;20100;-75
2022/03/15 00:31:51;;;;;;;4.28;1.50;;;;;;;10.62;45.76;102725.47;2091915;28;20095;-78
2022/03/15 00:33:13;;;;;;;4.38;1.52;;;;;;;10.60;45.84;102721.84;2095068;28;20542;-78
2022/03/15 00:34:35;;;;;;;2.08;1.00;;;;;;;10.56;45.73;102714.63;2089307;28;20048;-77
2022/03/15 00:35:59;;;;;;;3.13;0.90;;;;;;;10.53;45.57;102718.00;2086497;28;20136;-78
2022/03/15 00:37:21;;;;;;;5.35;1.77;;;;;;;10.47;45.50;102712.44;2092659;28;20044;-77
2022/03/15 00:38:44;;;;;;;5.57;2.08;;;;;;;10.44;45.35;102724.59;2086279;28;20136;-77
2022/03/15 00:40:07;;;;;;;1.60;1.15;;;;;;;10.42;45.22;102734.19;2084166;28;20492;-77
2022/03/15 00:41:31;;;;;;;2.40;1.45;;;;;;;10.37;45.23;102726.94;2076116;28;20049;-77
2022/03/15 00:42:54;;;;;;;4.63;1.17;;;;;;;10.33;44.91;102725.00;2092035;28;20084;-78
2022/03/15 00:44:23;;;;;;;2.58;1.05;;;;;;;10.29;44.68;102732.69;2091410;28;20044;-77
2022/03/15 00:45:47;;;;;;;7.03;1.60;;;;;;;10.27;44.65;102729.97;2078804;28;20811;-77
2022/03/15 00:47:08;;;;;;;4.22;1.02;;;;;;;10.24;44.50;102724.53;2085352;28;20127;-77
2022/03/15 00:48:33;;;;;;;3.80;1.40;;;;;;;10.22;44.58;102720.94;2103236;28;20126;-78
2022/03/15 00:49:55;;;;;;;3.20;1.67;;;;;;;10.21;44.67;102734.97;2072889;28;20062;-78
2022/03/15 00:51:17;;;;;;;5.93;1.55;;;;;;;10.20;44.53;102726.94;2084290;28;20381;-77
2022/03/15 00:52:40;;;;;;;4.05;1.60;;;;;;;10.20;44.59;102722.59;2079759;28;20185;-77
2022/03/15 00:54:02;;;;;;;5.05;2.33;;;;;;;10.18;44.17;102721.59;2095771;28;20535;-77
2022/03/15 00:55:25;;;;;;;3.05;1.38;;;;;;;10.16;44.42;102709.13;2094505;28;20135;-77
2022/03/15 00:56:49;;;;;;;6.35;1.10;;;;;;;10.16;44.66;102714.41;2086473;28;20548;-77
2022/03/15 00:58:11;;;;;;;3.78;1.70;;;;;;;10.11;44.69;102716.81;2095129;28;20124;-77
2022/03/15 00:59:34;;;;;;;4.55;1.48;;;;;;;10.09;44.60;102728.16;2085902;28;20048;-77
2022/03/15 01:00:58;;;;;;;7.13;1.98;;;;;;;10.06;44.63;102720.06;2086771;28;20060;-77
2022/03/15 01:02:19;;;;;;;7.85;2.33;;;;;;;10.05;44.77;102726.16;2072601;28;20543;-77
2022/03/15 01:03:42;;;;;;;4.95;1.65;;;;;;;10.03;44.59;102717.28;2075824;28;20049;-77
2022/03/15 01:05:04;;;;;;;4.57;1.83;;;;;;;10.04;44.32;102722.66;2083615;28;20101;-77
2022/03/15 01:06:27;;;;;;;4.43;1.38;;;;;;;10.04;44.50;102722.66;2092375;28;20091;-77
2022/03/15 01:07:50;;;;;;;5.65;1.50;;;;;;;10.03;44.27;102728.75;2090563;28;20124;-77
2022/03/15 01:09:11;;;;;;;2.33;1.17;;;;;;;10.03;44.58;102734.03;2079352;28;20612;-77
2022/03/15 01:10:34;;;;;;;3.72;1.70;;;;;;;10.03;44.48;102727.84;2078322;28;20371;-76
2022/03/15 01:11:59;;;;;;;4.40;1.65;;;;;;;10.02;44.77;102728.66;2093736;28;20551;-77
2022/03/15 01:13:22;;;;;;;3.67;1.55;;;;;;;10.00;44.62;102731.22;2089242;28;20401;-77
2022/03/15 01:14:43;;;;;;;5.40;1.45;;;;;;;10.01;44.60;102730.41;2075021;28;20065;-77
2022/03/15 01:16:07;;;;;;;5.75;2.28;;;;;;;10.01;44.63;102727.75;2081166;28;20131;-77
2022/03/15 01:17:30;;;;;;;3.03;1.33;;;;;;;10.04;44.45;102737.56;2077020;28;20168;-77
2022/03/15 01:18:52;;;;;;;3.53;1.23;;;;;;;10.01;44.65;102727.75;2072606;28;20100;-77
2022/03/15 01:20:15;;;;;;;4.97;1.80;;;;;;;10.05;44.63;102734.97;2096830;28;20043;-77
2022/03/15 01:21:38;;;;;;;5.10;2.28;;;;;;;10.05;44.70;102721.78;2094813;28;20049;-77
2022/03/15 01:23:00;;;;;;;2.70;1.30;;;;;;;10.06;44.65;102730.63;2078310;28;20076;-77
2022/03/15 01:24:21;;;;;;;2.85;1.13;;;;;;;10.07;44.62;102714.88;2075704;28;20611;-77
2022/03/15 01:25:44;;;;;;;4.60;1.55;;;;;;;10.06;44.58;102722.69;2083959;28;20051;-77
2022/03/15 01:27:07;;;;;;;3.85;1.58;;;;;;;10.04;44.59;102727.94;2079404;28;20176;-77
2022/03/15 01:28:29;;;;;;;2.70;1.50;;;;;;;10.02;44.15;102724.28;2079180;28;20649;-77
2022/03/15 01:29:52;;;;;;;5.45;1.83;;;;;;;9.98;44.64;102725.88;2090681;28;20076;-77
2022/03/15 01:31:15;;;;;;;14.27;2.28;;;;;;;9.93;44.64;102732.66;2072648;28;20057;-75
2022/03/15 01:32:38;;;;;;;4.00;1.88;;;;;;;9.90;44.81;102732.53;2082315;28;20098;-76
2022/03/15 01:33:59;;;;;;;8.45;3.30;;;;;;;9.88;44.81;102722.69;2078266;28;20413;-76
2022/03/15 01:35:22;;;;;;;3.65;1.70;;;;;;;9.84;44.93;102732.22;2078141;28;20049;-75
2022/03/15 01:36:43;;;;;;;2.05;1.27;;;;;;;9.82;45.13;102727.69;2083971;28;20036;-75
2022/03/15 01:38:06;;;;;;;7.65;3.08;;;;;;;9.80;45.14;102734.59;2083301;28;20041;-76
2022/03/15 01:39:28;;;;;;;7.03;1.92;;;;;;;9.78;45.07;102731.88;2080750;28;20389;-75
2022/03/15 01:40:51;;;;;;;5.13;1.70;;;;;;;9.78;44.96;102736.28;2100351;28;20048;-75
2022/03/15 01:42:14;;;;;;;5.30;2.03;;;;;;;9.75;45.12;102726.47;2085831;28;20045;-75
2022/03/15 01:43:40;;;;;;;6.20;1.85;;;;;;;9.75;45.18;102730.81;2080392;28;20140;-75
2022/03/15 01:45:04;;;;;;;10.35;2.20;;;;;;;9.75;45.09;102733.47;2083817;28;20120;-75
2022/03/15 01:46:27;;;;;;;7.38;2.63;;;;;;;9.72;45.45;102720.09;2078503;28;20077;-76
2022/03/15 01:47:50;;;;;;;3.00;1.17;;;;;;;9.71;45.59;102728.88;2081182;28;20048;-76
2022/03/15 01:49:15;;;;;;;10.25;3.33;;;;;;;9.74;45.56;102734.28;2084808;28;20511;-75
2022/03/15 01:50:40;;;;;;;5.18;2.13;;;;;;;9.75;45.21;102720.28;2083719;28;20040;-75
2022/03/15 01:52:03;;;;;;;5.10;2.05;;;;;;;9.76;45.32;102728.28;2091674;28;20087;-75
2022/03/15 01:53:27;;;;;;;6.72;1.95;;;;;;;9.78;45.14;102728.38;2094188;28;20120;-75
2022/03/15 01:54:51;;;;;;;3.95;2.03;;;;;;;9.81;45.14;102731.13;2072425;28;20612;-75
2022/03/15 01:56:13;;;;;;;6.38;2.95;;;;;;;9.83;45.13;102734.75;2083898;28;20057;-75
2022/03/15 01:57:38;;;;;;;11.48;3.05;;;;;;;9.89;45.40;102735.06;2088866;28;20048;-74
2022/03/15 01:58:59;;;;;;;8.70;3.40;;;;;;;9.92;45.19;102727.28;2088219;28;20570;-75
2022/03/15 02:00:22;;;;;;;12.20;2.60;;;;;;;9.97;45.13;102721.44;2077933;28;20740;-75
2022/03/15 02:01:48;;;;;;;5.03;1.73;;;;;;;9.99;45.40;102726.78;2092722;28;20045;-75
2022/03/15 02:03:09;;;;;;;2.20;1.25;;;;;;;10.02;45.30;102736.59;2085849;28;20080;-75
2022/03/15 02:04:33;;;;;;;4.10;1.88;;;;;;;10.01;45.21;102740.94;2090181;28;20132;-75
2022/03/15 02:05:54;;;;;;;7.70;1.75;;;;;;;9.99;45.19;102737.31;2081575;28;20676;-75
2022/03/15 02:07:17;;;;;;;2.53;1.50;;;;;;;9.96;45.07;102740.72;2091275;28;20072;-75
2022/03/15 02:08:39;;;;;;;4.90;1.75;;;;;;;9.92;45.26;102737.84;2088638;28;20061;-77
2022/03/15 02:10:03;;;;;;;2.63;1.75;;;;;;;9.88;45.35;102739.44;2096499;28;20050;-75
2022/03/15 02:11:26;;;;;;;4.38;1.60;;;;;;;9.86;45.25;102746.38;2092002;28;20141;-77
2022/03/15 02:12:51;;;;;;;4.72;1.17;;;;;;;9.84;45.32;102739.22;2077580;28;20053;-75
2022/03/15 02:14:14;;;;;;;4.78;2.00;;;;;;;9.81;45.35;102736.41;2085793;28;20095;-77
2022/03/15 02:15:36;;;;;;;3.65;1.98;;;;;;;9.80;45.22;102742.50;2088573;28;20037;-77
2022/03/15 02:16:59;;;;;;;6.15;2.17;;;;;;;9.82;45.30;102738.22;2089712;28;20044;-76
2022/03/15 02:18:23;;;;;;;7.13;1.70;;;;;;;9.81;45.40;102731.13;2085980;28;20037;-77
2022/03/15 02:19:46;;;;;;;6.18;1.98;;;;;;;9.81;45.38;102736.41;2094062;28;20071;-77
2022/03/15 02:21:09;;;;;;;3.72;1.73;;;;;;;9.82;45.71;102739.13;2092446;28;20403;-76
2022/03/15 02:22:32;;;;;;;2.20;1.40;;;;;;;9.82;45.74;102736.50;2096445;28;20435;-76
2022/03/15 02:23:55;;;;;;;4.10;1.20;;;;;;;9.82;45.69;102735.59;2085683;28;20048;-77
2022/03/15 02:25:18;;;;;;;6.28;1.92;;;;;;;9.83;45.74;102742.69;2083664;28;20055;-74
2022/03/15 02:26:41;;;;;;;3.50;1.10;;;;;;;9.81;45.84;102732.03;2077547;28;20575;-75
2022/03/15 02:28:02;;;;;;;3.25;1.65;;;;;;;9.81;45.73;102726.78;2077016;28;20087;-77
2022/03/15 02:29:24;;;;;;;4.95;1.83;;;;;;;9.82;45.95;102730.31;2090887;28;20094;-77
2022/03/15 02:30:47;;;;;;;2.58;1.50;;;;;;;9.81;45.93;102737.31;2080525;28;20470;-77
2022/03/15 02:32:11;;;;;;;4.60;1.40;;;;;;;9.83;46.14;102727.75;2086043;28;20088;-77
2022/03/15 02:33:33;;;;;;;6.65;1.88;;;;;;;9.86;45.98;102734.91;2091040;28;20530;-77
2022/03/15 02:34:55;;;;;;;3.95;1.45;;;;;;;9.89;45.93;102737.72;2085291;28;20081;-77
2022/03/15 02:36:19;;;;;;;4.45;1.70;;;;;;;9.92;46.01;102736.13;2083311;28;20064;-77
2022/03/15 02:37:41;;;;;;;4.40;1.90;;;;;;;9.95;46.00;102735.38;2083505;28;20078;-77
2022/03/15 02:39:04;;;;;;;5.57;1.60;;;;;;;9.99;45.98;102742.59;2091561;28;20037;-78
2022/03/15 02:40:26;;;;;;;5.43;1.92;;;;;;;10.02;46.06;102736.59;2085589;28;20040;-77
2022/03/15 02:41:48;;;;;;;3.33;1.38;;;;;;;10.04;45.93;102741.13;2091129;28;20585;-77
2022/03/15 02:43:10;;;;;;;4.93;1.55;;;;;;;10.07;45.99;102745.63;2085715;28;20136;-75
2022/03/15 02:44:33;;;;;;;2.15;1.33;;;;;;;10.08;46.01;102744.81;2072270;28;20083;-77
2022/03/15 02:45:54;;;;;;;8.10;2.10;;;;;;;10.11;46.10;102735.28;2075176;28;20046;-77
2022/03/15 02:47:17;;;;;;;5.32;1.88;;;;;;;10.13;45.91;102743.28;2074805;28;20053;-76
2022/03/15 02:48:38;;;;;;;5.85;2.03;;;;;;;10.16;46.26;102741.72;2077603;28;20049;-77
2022/03/15 02:50:01;;;;;;;3.55;1.77;;;;;;;10.18;46.31;102737.44;2077387;28;20099;-74
2022/03/15 02:51:25;;;;;;;3.95;1.70;;;;;;;10.21;46.34;102732.31;2077746;28;20132;-77
2022/03/15 02:52:46;;;;;;;4.72;2.00;;;;;;;10.21;46.67;102728.78;2084180;28;20838;-77
2022/03/15 02:54:11;;;;;;;4.63;1.60;;;;;;;10.25;46.52;102746.56;2077658;28;20049;-77
2022/03/15 02:55:34;;;;;;;6.90;3.35;;;;;;;10.25;46.55;102749.19;2075859;28;20057;-77
2022/03/15 02:56:57;;;;;;;4.70;1.90;;;;;;;10.27;46.80;102737.88;2083923;28;20041;-77
2022/03/15 02:58:20;;;;;;;6.80;2.05;;;;;;;10.28;46.80;102738.81;2061597;28;20081;-74
2022/03/15 02:59:43;;;;;;;6.60;2.25;;;;;;;10.30;47.02;102745.97;2076513;28;20115;-75
2022/03/15 03:01:06;;;;;;;4.70;2.17;;;;;;;10.30;47.05;102750.34;2076163;28;20713;-77
2022/03/15 03:02:27;;;;;;;4.30;1.88;;;;;;;10.29;47.08;102737.97;2075092;28;20136;-77
2022/03/15 03:03:50;;;;;;;6.30;2.13;;;;;;;10.32;47.17;102749.56;2075182;28;20596;-75
2022/03/15 03:05:12;;;;;;;5.10;2.03;;;;;;;10.32;46.93;102736.38;2077123;28;20124;-74
2022/03/15 03:06:36;;;;;;;4.25;2.00;;;;;;;10.35;47.18;102744.44;2069427;28;20514;-76
2022/03/15 03:07:57;;;;;;;3.25;1.65;;;;;;;10.35;47.44;102751.47;2076392;28;20052;-75
2022/03/15 03:09:20;;;;;;;3.83;1.77;;;;;;;10.34;47.35;102745.28;2069164;28;20641;-77
2022/03/15 03:10:42;;;;;;;9.13;2.88;;;;;;;10.36;47.33;102750.66;2067099;28;20076;-77
2022/03/15 03:12:04;;;;;;;6.07;2.45;;;;;;;10.37;47.33;102752.47;2083443;28;20053;-77
2022/03/15 03:13:27;;;;;;;5.40;2.75;;;;;;;10.36;47.48;102761.19;2069571;28;20069;-77
2022/03/15 03:14:50;;;;;;;4.55;2.30;;;;;;;10.38;47.46;102754.25;2082823;28;20057;-77
2022/03/15 03:16:13;;;;;;;3.05;1.50;;;;;;;10.40;47.51;102760.50;2085236;28;20048;-77
2022/03/15 03:17:35;;;;;;;8.75;2.08;;;;;;;10.39;47.43;102767.53;2077846;28;20060;-77
2022/03/15 03:18:59;;;;;;;2.22;1.42;;;;;;;10.39;47.54;102775.44;2069935;28;20133;-77
2022/03/15 03:20:27;;;;;;;5.25;1.90;;;;;;;10.39;47.75;102769.25;2076169;28;20099;-77
2022/03/15 03:21:51;;;;;;;4.85;1.95;;;;;;;10.39;47.31;102756.97;2068501;28;20524;-77
2022/03/15 03:23:14;;;;;;;7.50;2.50;;;;;;;10.39;47.80;102764.88;2076060;28;20140;-77
2022/03/15 03:24:35;;;;;;;4.85;2.13;;;;;;;10.40;47.87;102773.72;2071968;28;20038;-77
2022/03/15 03:25:59;;;;;;;3.97;2.30;;;;;;;10.38;47.81;102768.34;2069409;28;20526;-77
2022/03/15 03:27:20;;;;;;;3.75;2.10;;;;;;;10.40;48.10;102773.72;2071947;28;20096;-77
2022/03/15 03:28:44;;;;;;;4.72;2.22;;;;;;;10.39;47.67;102778.09;2081996;28;20057;-77
2022/03/15 03:30:07;;;;;;;4.90;2.13;;;;;;;10.41;47.98;102777.25;2084578;28;20049;-77
2022/03/15 03:31:31;;;;;;;12.20;3.75;;;;;;;10.40;48.04;102765.78;2063944;28;20145;-76
2022/03/15 03:32:54;;;;;;;5.07;2.42;;;;;;;10.41;47.99;102779.91;2079552;28;20045;-77
2022/03/15 03:34:16;;;;;;;3.60;2.33;;;;;;;10.43;48.27;102780.88;2080924;28;20149;-76
2022/03/15 03:35:39;;;;;;;9.25;2.53;;;;;;;10.43;47.95;102781.78;2069378;28;20095;-77
2022/03/15 03:37:05;;;;;;;4.88;2.58;;;;;;;10.44;47.99;102778.28;2075923;28;20053;-77
2022/03/15 03:38:28;;;;;;;10.80;3.08;;;;;;;10.44;48.04;102785.31;2074840;28;20401;-77
2022/03/15 03:39:51;;;;;;;5.97;2.30;;;;;;;10.42;48.25;102777.34;2066924;28;20049;-77
2022/03/15 03:41:13;;;;;;;7.07;2.53;;;;;;;10.45;48.01;102771.28;2083362;28;20045;-77
2022/03/15 03:42:36;;;;;;;5.50;2.17;;;;;;;10.46;48.16;102766.09;2077999;28;20133;-77
2022/03/15 03:44:00;;;;;;;10.30;2.35;;;;;;;10.43;48.15;102784.44;2083629;28;20067;-77
2022/03/15 03:45:21;;;;;;;4.10;2.30;;;;;;;10.42;48.04;102779.06;2082606;28;20037;-77
2022/03/15 03:46:45;;;;;;;3.75;1.65;;;;;;;10.42;47.83;102779.97;2077079;28;20050;-77
2022/03/15 03:48:07;;;;;;;5.13;1.95;;;;;;;10.41;47.79;102790.47;2077547;28;20533;-78
2022/03/15 03:49:31;;;;;;;4.57;2.10;;;;;;;10.39;47.84;102791.28;2066035;28;20065;-77
2022/03/15 03:50:55;;;;;;;7.38;2.72;;;;;;;10.41;47.71;102790.47;2069247;28;20046;-77
2022/03/15 03:52:17;;;;;;;2.53;1.38;;;;;;;10.38;47.72;102784.19;2085027;28;20519;-77
2022/03/15 03:53:40;;;;;;;5.35;1.75;;;;;;;10.36;47.67;102782.31;2077073;28;20054;-77
2022/03/15 03:55:02;;;;;;;3.25;1.83;;;;;;;10.36;47.85;102793.78;2071047;28;20046;-77
2022/03/15 03:56:25;;;;;;;3.92;2.03;;;;;;;10.35;47.72;102777.88;2076571;28;20080;-78
2022/03/15 03:57:47;;;;;;;7.55;2.45;;;;;;;10.35;47.52;102797.25;2083595;28;20103;-77
2022/03/15 03:59:11;;;;;;;6.45;2.08;;;;;;;10.33;47.48;102796.25;2070088;28;20129;-78
2022/03/15 04:00:34;;;;;;;7.28;1.77;;;;;;;10.35;47.51;102797.25;2074754;28;20556;-76
2022/03/15 04:01:56;;;;;;;8.77;2.35;;;;;;;10.33;47.43;102796.25;2069560;28;20157;-77
2022/03/15 04:03:19;;;;;;;8.52;2.92;;;;;;;10.30;47.41;102797.88;2084064;28;20053;-77
2022/03/15 04:04:40;;;;;;;3.60;1.60;;;;;;;10.27;47.40;102784.50;2077825;28;20042;-77
2022/03/15 04:06:04;;;;;;;5.68;1.73;;;;;;;10.25;47.16;102784.41;2082234;28;20051;-76
2022/03/15 04:07:29;;;;;;;5.68;1.80;;;;;;;10.23;47.07;102788.75;2084153;28;20076;-76
2022/03/15 04:08:54;;;;;;;5.63;1.95;;;;;;;10.22;47.10;102786.00;2087263;28;20056;-77
2022/03/15 04:10:21;;;;;;;6.45;2.15;;;;;;;10.22;46.93;102788.66;2076283;28;20061;-76
2022/03/15 04:11:43;;;;;;;8.00;3.03;;;;;;;10.22;46.93;102799.22;2084910;28;20056;-76
2022/03/15 04:13:07;;;;;;;5.55;2.05;;;;;;;10.21;47.03;102789.47;2076425;28;20084;-77
2022/03/15 04:14:30;;;;;;;6.00;2.25;;;;;;;10.17;46.95;102800.72;2077933;28;20053;-77
2022/03/15 04:15:53;;;;;;;5.45;2.30;;;;;;;10.15;46.80;102797.06;2076462;28;20081;-77
2022/03/15 04:17:16;;;;;;;5.50;2.78;;;;;;;10.11;46.85;102801.25;2075292;28;20133;-76
2022/03/15 04:18:38;;;;;;;5.28;2.35;;;;;;;10.09;46.57;102802.94;2069537;28;20104;-77
2022/03/15 04:20:03;;;;;;;7.35;2.80;;;;;;;10.05;46.64;102800.03;2074742;28;20037;-77
2022/03/15 04:21:25;;;;;;;6.50;2.67;;;;;;;10.01;46.75;102801.63;2080343;28;20049;-76
2022/03/15 04:22:49;;;;;;;4.68;2.30;;;;;;;10.00;46.84;102798.09;2074152;28;20107;-76
2022/03/15 04:24:12;;;;;;;4.68;1.80;;;;;;;9.97;46.75;102802.31;2070831;28;20148;-76
2022/03/15 04:25:33;;;;;;;4.25;1.70;;;;;;;9.95;46.92;102803.97;2082166;28;20044;-76
2022/03/15 04:26:57;;;;;;;3.45;1.45;;;;;;;9.91;46.86;102802.88;2078092;28;20041;-76
2022/03/15 04:28:20;;;;;;;8.65;2.92;;;;;;;9.90;46.81;102803.75;2080965;28;20591;-76
2022/03/15 04:29:45;;;;;;;5.03;1.92;;;;;;;9.90;46.85;102814.28;2076563;28;20513;-76
2022/03/15 04:31:07;;;;;;;6.95;2.58;;;;;;;9.90;46.95;102805.47;2081485;28;20053;-75
2022/03/15 04:32:30;;;;;;;7.10;2.42;;;;;;;9.88;46.94;102809.75;2078878;28;20072;-76
2022/03/15 04:33:53;;;;;;;4.88;1.77;;;;;;;9.85;47.12;102801.66;2081205;28;20038;-76
2022/03/15 04:35:16;;;;;;;7.70;2.60;;;;;;;9.83;46.85;102804.25;2084165;28;20489;-76
2022/03/15 04:36:40;;;;;;;8.93;2.38;;;;;;;9.82;46.99;102806.81;2078611;28;20057;-76
2022/03/15 04:38:04;;;;;;;6.88;2.60;;;;;;;9.80;46.91;102806.72;2083589;28;20072;-76
2022/03/15 04:39:27;;;;;;;8.75;2.45;;;;;;;9.76;46.77;102807.41;2078950;28;20045;-76
2022/03/15 04:40:50;;;;;;;5.35;2.20;;;;;;;9.74;46.70;102816.97;2076257;28;20045;-76
2022/03/15 04:42:12;;;;;;;5.40;1.95;;;;;;;9.72;46.39;102813.31;2070462;28;20486;-76
2022/03/15 04:43:35;;;;;;;4.82;2.13;;;;;;;9.71;46.22;102819.44;2078551;28;20076;-76
2022/03/15 04:44:58;;;;;;;5.18;2.53;;;;;;;9.71;46.30;102815.91;2084945;28;20151;-77
2022/03/15 04:46:21;;;;;;;6.72;3.38;;;;;;;9.70;46.09;102822.00;2084748;28;20049;-76
2022/03/15 04:47:43;;;;;;;7.72;3.13;;;;;;;9.70;46.39;102817.63;2077838;28;20057;-76
2022/03/15 04:49:06;;;;;;;3.60;1.85;;;;;;;9.69;46.17;102818.47;2081392;28;20041;-77
2022/03/15 04:50:30;;;;;;;6.75;2.70;;;;;;;9.72;46.38;102817.69;2074332;28;20048;-76
2022/03/15 04:51:52;;;;;;;7.43;2.35;;;;;;;9.73;46.40;102823.06;2081684;28;20547;-76
2022/03/15 04:53:16;;;;;;;5.13;1.80;;;;;;;9.74;46.33;102818.69;2077286;28;20091;-76
2022/03/15 04:54:39;;;;;;;9.95;2.67;;;;;;;9.76;46.60;102825.88;2081816;28;20041;-76
2022/03/15 04:56:01;;;;;;;4.20;2.50;;;;;;;9.81;47.00;102831.38;2083842;28;20147;-76
2022/03/15 04:57:23;;;;;;;11.25;3.30;;;;;;;9.87;46.97;102815.84;2086264;28;20053;-76
2022/03/15 04:58:46;;;;;;;7.78;3.25;;;;;;;9.95;46.86;102823.34;2087723;28;20447;-76
2022/03/15 05:00:09;;;;;;;5.55;2.63;;;;;;;10.02;47.13;102824.56;2083537;28;20060;-76
2022/03/15 05:01:32;;;;;;;3.95;2.75;;;;;;;10.10;46.77;102817.94;2075464;28;20107;-75
2022/03/15 05:02:55;;;;;;;2.83;1.35;;;;;;;10.16;46.83;102818.25;2084100;28;20543;-76
2022/03/15 05:04:17;;;;;;;8.48;4.47;;;;;;;10.23;46.77;102812.50;2078172;28;20128;-77
2022/03/15 05:05:39;;;;;;;6.40;2.72;;;;;;;10.26;46.78;102820.53;2077574;28;20136;-76
2022/03/15 05:07:01;;;;;;;11.75;4.47;;;;;;;10.30;46.59;102826.91;2075024;28;20083;-77
2022/03/15 05:08:26;;;;;;;9.43;4.10;;;;;;;10.33;46.59;102821.75;2083780;28;20040;-76
2022/03/15 05:11:28;;;;;;;3.10;2.00;;;;;;;10.36;46.42;102829.84;2092692;28;20048;-76
2022/03/15 05:12:50;;;;;;;;;;;;;;;10.40;46.16;102823.88;2091991;28;20048;-76
2022/03/15 05:14:12;;;;;;;5.35;1.70;;;;;;;10.44;46.65;102835.47;2086483;28;20377;-76
2022/03/15 05:15:33;;;;;;;5.60;1.75;;;;;;;10.50;46.55;102827.88;2086129;28;20106;-76
2022/03/15 05:16:56;;;;;;;4.50;2.00;;;;;;;10.53;46.76;102833.31;2087088;28;20049;-77
2022/03/15 05:18:18;;;;;;;2.85;1.83;;;;;;;10.55;46.89;102831.66;2094876;28;20521;-75
2022/03/15 05:19:41;;;;;;;5.22;1.70;;;;;;;10.59;46.79;102828.31;2086559;28;20131;-76
2022/03/15 05:21:03;;;;;;;6.57;2.15;;;;;;;10.64;46.86;102832.06;2091779;28;20045;-77
2022/03/15 05:22:27;;;;;;;4.35;1.88;;;;;;;10.67;46.68;102826.97;2085852;28;20070;-76
2022/03/15 05:23:51;;;;;;;7.30;2.20;;;;;;;10.72;46.76;102820.16;2091674;28;20044;-76
2022/03/15 05:25:14;;;;;;;4.18;1.98;;;;;;;10.78;46.87;102826.63;2092903;28;20074;-76
2022/03/15 05:26:37;;;;;;;5.65;2.28;;;;;;;10.82;46.78;102837.38;2094856;28;20040;-76
2022/03/15 05:28:00;;;;;;;5.75;1.83;;;;;;;10.90;46.70;102835.97;2088592;28;20037;-76
2022/03/15 05:29:22;;;;;;;3.67;1.92;;;;;;;10.96;46.39;102826.59;2090815;28;20040;-76
2022/03/15 05:30:45;;;;;;;4.93;1.55;;;;;;;10.98;46.25;102824.94;2094732;28;20041;-74
2022/03/15 05:32:08;;;;;;;3.03;1.60;;;;;;;11.00;46.09;102825.94;2086516;28;20094;-75
2022/03/15 05:33:31;;;;;;;3.55;1.70;;;;;;;11.11;45.66;102832.59;2094903;28;20041;-76
2022/03/15 05:34:53;;;;;;;7.75;2.13;;;;;;;11.24;45.60;102833.16;2088968;28;20179;-77
2022/03/15 05:36:17;;;;;;;4.53;1.90;;;;;;;11.36;45.84;102832.00;2101131;28;20078;-76
2022/03/15 05:37:38;;;;;;;3.30;1.52;;;;;;;11.52;45.58;102823.03;2083351;28;20132;-74
2022/03/15 05:39:02;;;;;;;4.28;1.67;;;;;;;11.58;45.23;102818.00;2080432;28;20100;-76
2022/03/15 05:40:25;;;;;;;3.90;1.45;;;;;;;11.63;45.22;102824.41;2091717;28;20135;-74
2022/03/15 05:41:47;;;;;;;4.90;1.70;;;;;;;11.78;45.18;102829.50;2092889;28;20119;-74
2022/03/15 05:43:11;;;;;;;3.35;1.63;;;;;;;11.99;44.89;102833.09;2085893;28;20128;-74
2022/03/15 05:44:34;;;;;;;5.88;2.58;;;;;;;12.23;44.63;102830.56;2086563;28;20056;-73
2022/03/15 05:45:56;;;;;;;3.83;1.95;;;;;;;12.50;44.35;102826.41;2080373;28;20061;-74
2022/03/15 05:47:19;;;;;;;4.43;1.73;;;;;;;12.63;43.84;102830.47;2083701;28;20131;-74
2022/03/15 05:48:41;;;;;;;3.95;1.45;;;;;;;12.61;43.70;102824.19;2091832;28;20036;-74
2022/03/15 05:50:04;;;;;;;3.28;1.63;;;;;;;12.50;43.29;102830.81;2094352;28;20063;-74
2022/03/15 05:51:27;;;;;;;6.28;2.03;;;;;;;12.40;43.64;102831.28;2097008;28;20438;-74
2022/03/15 05:52:48;;;;;;;2.60;1.67;;;;;;;12.32;43.58;102834.53;2086328;28;20136;-74
2022/03/15 05:54:12;;;;;;;4.68;1.98;;;;;;;12.25;43.72;102829.81;2091744;28;20067;-74
2022/03/15 05:55:35;;;;;;;6.07;2.25;;;;;;;12.19;43.72;102836.59;2098486;28;20135;-74
2022/03/15 05:56:58;;;;;;;6.82;2.20;;;;;;;12.15;43.78;102838.19;2096605;28;20135;-74
2022/03/15 05:58:20;;;;;;;4.95;1.80;;;;;;;12.12;44.02;102834.50;2077184;28;20137;-73
2022/03/15 05:59:46;;;;;;;5.38;1.83;;;;;;;12.10;44.05;102839.75;2082633;28;20045;-74
2022/03/15 06:01:08;;;;;;;5.70;2.40;;;;;;;12.13;44.02;102844.28;2078053;28;20123;-77
2022/03/15 06:02:31;;;;;;;3.90;1.77;;;;;;;12.14;43.88;102830.19;2083636;28;20044;-77
2022/03/15 06:03:54;;;;;;;5.30;1.70;;;;;;;12.10;43.93;102837.09;2082785;28;20053;-74
2022/03/15 06:05:17;;;;;;;5.40;2.35;;;;;;;12.05;44.07;102841.28;2078060;28;20057;-76
2022/03/15 06:06:39;;;;;;;4.95;2.10;;;;;;;12.02;44.18;102846.44;2075388;28;20184;-74
2022/03/15 06:08:02;;;;;;;5.30;2.08;;;;;;;12.01;44.19;102852.59;2084624;28;20044;-74
2022/03/15 06:09:26;;;;;;;6.88;1.95;;;;;;;12.05;44.15;102848.31;2079878;28;20513;-73
2022/03/15 06:10:49;;;;;;;3.60;1.90;;;;;;;12.05;44.23;102843.03;2084842;28;20060;-74
2022/03/15 06:12:12;;;;;;;5.80;2.15;;;;;;;12.08;43.88;102845.81;2094044;28;20048;-75
2022/03/15 06:13:35;;;;;;;3.90;1.75;;;;;;;12.32;43.46;102861.00;2091635;28;20048;-74
2022/03/15 06:14:57;;;;;;;2.60;1.38;;;;;;;12.43;43.29;102857.88;2093586;28;20047;-74
2022/03/15 06:16:20;;;;;;;3.50;1.70;;;;;;;12.32;43.39;102852.16;2085383;28;20527;-74
2022/03/15 06:17:48;;;;;;;3.75;1.95;;;;;;;12.14;43.52;102856.69;2091570;28;20048;-75
2022/03/15 06:19:10;;;;;;;3.65;1.67;;;;;;;11.98;43.58;102849.81;2087508;28;20508;-75
2022/03/15 06:20:33;;;;;;;7.00;1.92;;;;;;;11.96;43.69;102852.38;2092231;28;20048;-74
2022/03/15 06:21:56;;;;;;;3.75;1.70;;;;;;;12.10;43.63;102858.28;2086110;28;20044;-74
2022/03/15 06:23:21;;;;;;;7.80;1.80;;;;;;;12.07;43.20;102851.94;2086447;28;20053;-74
2022/03/15 06:24:44;;;;;;;6.28;2.42;;;;;;;12.01;43.44;102851.69;2091786;28;20087;-75
2022/03/15 06:26:07;;;;;;;3.78;1.92;;;;;;;11.92;43.50;102855.75;2086079;28;20394;-75
2022/03/15 06:27:29;;;;;;;6.80;2.30;;;;;;;11.86;43.36;102860.78;2091977;28;20062;-75
2022/03/15 06:28:53;;;;;;;5.65;2.33;;;;;;;11.83;43.44;102844.75;2085496;28;20063;-74